sensor_id;sensor_type;location;lat;lon;timestamp;temperature;humidity
18934;DHT22;9599;53.706;10.384;2023-04-24T00:00:16;13.20;99.90
18934;DHT22;9599;53.706;10.384;2023-04-24T00:02:44;13.20;99.90
18934;DHT22;9599;53.706;10.384;2023-04-24T00:05:15;13.10;99.90
18934;DHT22;9599;53.706;10.384;2023-04-24T00:07:45;13.20;99.90
18934;DHT22;9599;53.706;10.384;2023-04-24T00:10:13;13.20;99.90
18934;DHT22;9599;53.706;10.384;2023-04-24T00:12:41;13.20;99.90
18934;DHT22;9599;53.706;10.384;2023-04-24T00:15:09;13.10;99.90
18934;DHT22;9599;53.706;10.384;2023-04-24T00:17:38;13.20;99.90
18934;DHT22;9599;53.706;10.384;2023-04-24T00:20:06;13.10;99.90
18934;DHT22;9599;53.706;10.384;2023-04-24T00:22:34;13.10;99.90
18934;DHT22;9599;53.706;10.384;2023-04-24T00:25:04;13.10;99.90
18934;DHT22;9599;53.706;10.384;2023-04-24T00:27:32;13.10;99.90
18934;DHT22;9599;53.706;10.384;2023-04-24T00:30:02;13.10;99.90
18934;DHT22;9599;53.706;10.384;2023-04-24T00:32:31;13.00;99.90
18934;DHT22;9599;53.706;10.384;2023-04-24T00:34:59;12.90;99.90
18934;DHT22;9599;53.706;10.384;2023-04-24T00:37:27;13.00;99.90
18934;DHT22;9599;53.706;10.384;2023-04-24T00:39:55;12.90;99.90
18934;DHT22;9599;53.706;10.384;2023-04-24T00:42:25;12.90;99.90
18934;DHT22;9599;53.706;10.384;2023-04-24T00:44:53;12.90;99.90
18934;DHT22;9599;53.706;10.384;2023-04-24T00:47:21;12.90;99.90
18934;DHT22;9599;53.706;10.384;2023-04-24T00:49:49;12.90;99.90
18934;DHT22;9599;53.706;10.384;2023-04-24T00:52:18;12.90;99.90
18934;DHT22;9599;53.706;10.384;2023-04-24T00:54:47;12.90;99.90
18934;DHT22;9599;53.706;10.384;2023-04-24T00:57:15;12.90;99.90
18934;DHT22;9599;53.706;10.384;2023-04-24T00:59:45;12.90;99.90
18934;DHT22;9599;53.706;10.384;2023-04-24T01:02:14;12.90;99.90
18934;DHT22;9599;53.706;10.384;2023-04-24T01:04:42;12.80;99.90
18934;DHT22;9599;53.706;10.384;2023-04-24T01:07:12;12.80;99.90
18934;DHT22;9599;53.706;10.384;2023-04-24T01:09:40;12.80;99.90
18934;DHT22;9599;53.706;10.384;2023-04-24T01:12:09;12.80;99.90
18934;DHT22;9599;53.706;10.384;2023-04-24T01:14:37;12.80;99.90
18934;DHT22;9599;53.706;10.384;2023-04-24T01:17:06;12.70;99.90
18934;DHT22;9599;53.706;10.384;2023-04-24T01:19:35;12.70;99.90
18934;DHT22;9599;53.706;10.384;2023-04-24T01:22:08;12.70;99.90
18934;DHT22;9599;53.706;10.384;2023-04-24T01:24:38;12.70;99.90
18934;DHT22;9599;53.706;10.384;2023-04-24T01:27:06;12.70;99.90
18934;DHT22;9599;53.706;10.384;2023-04-24T01:29:35;12.70;99.90
18934;DHT22;9599;53.706;10.384;2023-04-24T01:32:03;12.70;99.90
18934;DHT22;9599;53.706;10.384;2023-04-24T01:34:31;12.70;99.90
18934;DHT22;9599;53.706;10.384;2023-04-24T01:37:00;12.70;99.90
18934;DHT22;9599;53.706;10.384;2023-04-24T01:39:29;12.70;99.90
18934;DHT22;9599;53.706;10.384;2023-04-24T01:41:57;12.70;99.90
18934;DHT22;9599;53.706;10.384;2023-04-24T01:44:25;12.70;99.90
18934;DHT22;9599;53.706;10.384;2023-04-24T01:46:53;12.70;99.90
18934;DHT22;9599;53.706;10.384;2023-04-24T01:49:23;12.60;99.90
18934;DHT22;9599;53.706;10.384;2023-04-24T01:51:51;12.60;99.90
18934;DHT22;9599;53.706;10.384;2023-04-24T01:54:19;12.60;99.90
18934;DHT22;9599;53.706;10.384;2023-04-24T01:56:48;12.60;99.90
18934;DHT22;9599;53.706;10.384;2023-04-24T01:59:17;12.60;99.90
18934;DHT22;9599;53.706;10.384;2023-04-24T02:01:45;12.50;99.90
18934;DHT22;9599;53.706;10.384;2023-04-24T02:04:13;12.50;99.90
18934;DHT22;9599;53.706;10.384;2023-04-24T02:06:42;12.50;99.90
18934;DHT22;9599;53.706;10.384;2023-04-24T02:09:10;12.40;99.90
18934;DHT22;9599;53.706;10.384;2023-04-24T02:11:38;12.40;99.90
18934;DHT22;9599;53.706;10.384;2023-04-24T02:14:07;12.40;99.90
18934;DHT22;9599;53.706;10.384;2023-04-24T02:16:35;12.40;99.90
18934;DHT22;9599;53.706;10.384;2023-04-24T02:19:03;12.40;99.90
18934;DHT22;9599;53.706;10.384;2023-04-24T02:21:31;12.30;99.90
18934;DHT22;9599;53.706;10.384;2023-04-24T02:24:00;12.30;99.90
18934;DHT22;9599;53.706;10.384;2023-04-24T02:26:28;12.30;99.90
18934;DHT22;9599;53.706;10.384;2023-04-24T02:28:58;12.20;99.90
18934;DHT22;9599;53.706;10.384;2023-04-24T02:31:27;12.20;99.90
18934;DHT22;9599;53.706;10.384;2023-04-24T02:33:56;12.20;99.90
18934;DHT22;9599;53.706;10.384;2023-04-24T02:36:23;12.10;99.90
18934;DHT22;9599;53.706;10.384;2023-04-24T02:38:51;12.10;99.90
18934;DHT22;9599;53.706;10.384;2023-04-24T02:41:19;12.10;99.90
18934;DHT22;9599;53.706;10.384;2023-04-24T02:43:47;12.00;99.90
18934;DHT22;9599;53.706;10.384;2023-04-24T02:46:16;12.00;99.90
18934;DHT22;9599;53.706;10.384;2023-04-24T02:48:45;12.00;99.90
18934;DHT22;9599;53.706;10.384;2023-04-24T02:51:13;11.90;99.90
18934;DHT22;9599;53.706;10.384;2023-04-24T02:53:41;11.90;99.90
18934;DHT22;9599;53.706;10.384;2023-04-24T02:56:09;11.80;99.90
18934;DHT22;9599;53.706;10.384;2023-04-24T02:58:38;11.80;99.90
18934;DHT22;9599;53.706;10.384;2023-04-24T03:01:06;11.80;99.90
18934;DHT22;9599;53.706;10.384;2023-04-24T03:03:34;11.80;99.90
18934;DHT22;9599;53.706;10.384;2023-04-24T03:06:04;11.80;99.90
18934;DHT22;9599;53.706;10.384;2023-04-24T03:08:32;11.70;99.90
18934;DHT22;9599;53.706;10.384;2023-04-24T03:11:00;11.70;99.90
18934;DHT22;9599;53.706;10.384;2023-04-24T03:13:28;11.60;99.90
18934;DHT22;9599;53.706;10.384;2023-04-24T03:15:56;11.60;99.90
18934;DHT22;9599;53.706;10.384;2023-04-24T03:18:24;11.60;99.90
18934;DHT22;9599;53.706;10.384;2023-04-24T03:20:52;11.60;99.90
18934;DHT22;9599;53.706;10.384;2023-04-24T03:23:21;11.50;99.90
18934;DHT22;9599;53.706;10.384;2023-04-24T03:25:49;11.60;99.90
18934;DHT22;9599;53.706;10.384;2023-04-24T03:28:19;11.50;99.90
18934;DHT22;9599;53.706;10.384;2023-04-24T03:30:53;11.50;99.90
18934;DHT22;9599;53.706;10.384;2023-04-24T03:33:23;11.50;99.90
18934;DHT22;9599;53.706;10.384;2023-04-24T03:35:58;11.50;99.90
18934;DHT22;9599;53.706;10.384;2023-04-24T03:38:33;11.50;99.90
18934;DHT22;9599;53.706;10.384;2023-04-24T03:41:25;11.50;99.90
18934;DHT22;9599;53.706;10.384;2023-04-24T03:44:11;11.40;99.90
18934;DHT22;9599;53.706;10.384;2023-04-24T03:46:40;11.40;99.90
18934;DHT22;9599;53.706;10.384;2023-04-24T03:49:08;11.40;99.90
18934;DHT22;9599;53.706;10.384;2023-04-24T03:51:42;11.40;99.90
18934;DHT22;9599;53.706;10.384;2023-04-24T03:54:24;11.30;99.90
18934;DHT22;9599;53.706;10.384;2023-04-24T03:56:53;11.40;99.90
18934;DHT22;9599;53.706;10.384;2023-04-24T03:59:22;11.40;99.90
18934;DHT22;9599;53.706;10.384;2023-04-24T04:02:04;11.40;99.90
18934;DHT22;9599;53.706;10.384;2023-04-24T04:04:32;11.40;99.90
18934;DHT22;9599;53.706;10.384;2023-04-24T04:07:00;11.40;99.90
18934;DHT22;9599;53.706;10.384;2023-04-24T04:09:31;11.40;99.90
18934;DHT22;9599;53.706;10.384;2023-04-24T04:12:00;11.40;99.90
18934;DHT22;9599;53.706;10.384;2023-04-24T04:14:28;11.30;99.90
18934;DHT22;9599;53.706;10.384;2023-04-24T04:16:56;11.30;99.90
18934;DHT22;9599;53.706;10.384;2023-04-24T04:19:25;11.30;99.90
18934;DHT22;9599;53.706;10.384;2023-04-24T04:21:53;11.30;99.90
18934;DHT22;9599;53.706;10.384;2023-04-24T04:24:36;11.30;99.90
18934;DHT22;9599;53.706;10.384;2023-04-24T04:27:05;11.30;99.90
18934;DHT22;9599;53.706;10.384;2023-04-24T04:29:41;11.30;99.90
18934;DHT22;9599;53.706;10.384;2023-04-24T04:32:11;11.30;99.90
18934;DHT22;9599;53.706;10.384;2023-04-24T04:34:39;11.30;99.90
18934;DHT22;9599;53.706;10.384;2023-04-24T04:37:11;11.30;99.90
18934;DHT22;9599;53.706;10.384;2023-04-24T04:39:54;11.20;99.90
18934;DHT22;9599;53.706;10.384;2023-04-24T04:42:24;11.20;99.90
18934;DHT22;9599;53.706;10.384;2023-04-24T04:44:53;11.20;99.90
18934;DHT22;9599;53.706;10.384;2023-04-24T04:47:29;11.10;99.90
18934;DHT22;9599;53.706;10.384;2023-04-24T04:50:00;11.10;99.90
18934;DHT22;9599;53.706;10.384;2023-04-24T04:52:31;11.20;99.90
18934;DHT22;9599;53.706;10.384;2023-04-24T04:55:14;11.10;99.90
18934;DHT22;9599;53.706;10.384;2023-04-24T04:58:07;11.10;99.90
18934;DHT22;9599;53.706;10.384;2023-04-24T05:00:36;11.10;99.90
18934;DHT22;9599;53.706;10.384;2023-04-24T05:03:13;11.20;99.90
18934;DHT22;9599;53.706;10.384;2023-04-24T05:05:49;11.20;99.90
18934;DHT22;9599;53.706;10.384;2023-04-24T05:08:18;11.20;99.90
18934;DHT22;9599;53.706;10.384;2023-04-24T05:10:54;11.20;99.90
18934;DHT22;9599;53.706;10.384;2023-04-24T05:13:24;11.20;99.90
18934;DHT22;9599;53.706;10.384;2023-04-24T05:16:09;11.30;99.90
18934;DHT22;9599;53.706;10.384;2023-04-24T05:18:37;11.40;99.90
18934;DHT22;9599;53.706;10.384;2023-04-24T05:21:08;11.40;99.90
18934;DHT22;9599;53.706;10.384;2023-04-24T05:23:38;11.40;99.90
18934;DHT22;9599;53.706;10.384;2023-04-24T05:26:08;11.50;99.90
18934;DHT22;9599;53.706;10.384;2023-04-24T05:28:36;11.60;99.90
18934;DHT22;9599;53.706;10.384;2023-04-24T05:31:08;11.60;99.90
18934;DHT22;9599;53.706;10.384;2023-04-24T05:33:36;11.60;99.90
18934;DHT22;9599;53.706;10.384;2023-04-24T05:36:06;11.70;99.90
18934;DHT22;9599;53.706;10.384;2023-04-24T05:38:35;11.80;99.90
18934;DHT22;9599;53.706;10.384;2023-04-24T05:41:04;11.90;99.90
18934;DHT22;9599;53.706;10.384;2023-04-24T05:43:33;11.90;99.90
18934;DHT22;9599;53.706;10.384;2023-04-24T05:46:01;12.00;99.90
18934;DHT22;9599;53.706;10.384;2023-04-24T05:48:29;12.10;99.90
18934;DHT22;9599;53.706;10.384;2023-04-24T05:51:00;12.20;99.90
18934;DHT22;9599;53.706;10.384;2023-04-24T05:53:28;12.40;99.90
18934;DHT22;9599;53.706;10.384;2023-04-24T05:55:56;12.40;99.90
18934;DHT22;9599;53.706;10.384;2023-04-24T05:58:24;12.50;99.90
18934;DHT22;9599;53.706;10.384;2023-04-24T06:00:53;12.70;99.90
18934;DHT22;9599;53.706;10.384;2023-04-24T06:03:22;12.80;99.90
18934;DHT22;9599;53.706;10.384;2023-04-24T06:05:50;12.90;99.90
18934;DHT22;9599;53.706;10.384;2023-04-24T06:08:20;12.90;99.90
18934;DHT22;9599;53.706;10.384;2023-04-24T06:10:49;12.90;99.90
18934;DHT22;9599;53.706;10.384;2023-04-24T06:13:19;13.10;99.90
18934;DHT22;9599;53.706;10.384;2023-04-24T06:16:08;13.20;99.90
18934;DHT22;9599;53.706;10.384;2023-04-24T06:18:39;13.40;99.90
18934;DHT22;9599;53.706;10.384;2023-04-24T06:21:08;13.50;99.90
18934;DHT22;9599;53.706;10.384;2023-04-24T06:23:36;13.60;99.90
18934;DHT22;9599;53.706;10.384;2023-04-24T06:26:04;13.80;99.90
18934;DHT22;9599;53.706;10.384;2023-04-24T06:28:32;13.80;99.90
18934;DHT22;9599;53.706;10.384;2023-04-24T06:31:01;13.80;99.90
18934;DHT22;9599;53.706;10.384;2023-04-24T06:33:30;13.70;99.90
18934;DHT22;9599;53.706;10.384;2023-04-24T06:35:58;13.90;99.90
18934;DHT22;9599;53.706;10.384;2023-04-24T06:38:26;14.00;99.90
18934;DHT22;9599;53.706;10.384;2023-04-24T06:40:56;14.20;99.90
18934;DHT22;9599;53.706;10.384;2023-04-24T06:43:24;14.40;99.90
18934;DHT22;9599;53.706;10.384;2023-04-24T06:45:51;14.50;99.90
18934;DHT22;9599;53.706;10.384;2023-04-24T06:48:20;14.50;99.90
18934;DHT22;9599;53.706;10.384;2023-04-24T06:50:49;14.60;99.90
18934;DHT22;9599;53.706;10.384;2023-04-24T06:53:17;14.60;99.90
18934;DHT22;9599;53.706;10.384;2023-04-24T06:55:45;14.70;99.90
18934;DHT22;9599;53.706;10.384;2023-04-24T06:58:13;14.80;99.90
18934;DHT22;9599;53.706;10.384;2023-04-24T07:00:41;15.00;99.90
18934;DHT22;9599;53.706;10.384;2023-04-24T07:03:09;14.90;99.90
18934;DHT22;9599;53.706;10.384;2023-04-24T07:05:37;15.00;99.90
18934;DHT22;9599;53.706;10.384;2023-04-24T07:08:07;14.80;99.90
18934;DHT22;9599;53.706;10.384;2023-04-24T07:10:37;14.90;99.90
18934;DHT22;9599;53.706;10.384;2023-04-24T07:13:05;14.90;99.90
18934;DHT22;9599;53.706;10.384;2023-04-24T07:15:35;14.90;99.90
18934;DHT22;9599;53.706;10.384;2023-04-24T07:18:03;14.90;99.90
18934;DHT22;9599;53.706;10.384;2023-04-24T07:20:31;15.10;99.90
18934;DHT22;9599;53.706;10.384;2023-04-24T07:23:00;15.00;99.90
18934;DHT22;9599;53.706;10.384;2023-04-24T07:25:29;14.90;99.90
18934;DHT22;9599;53.706;10.384;2023-04-24T07:27:57;14.80;99.90
18934;DHT22;9599;53.706;10.384;2023-04-24T07:30:25;14.80;99.90
18934;DHT22;9599;53.706;10.384;2023-04-24T07:32:55;14.70;99.90
18934;DHT22;9599;53.706;10.384;2023-04-24T07:35:24;14.80;99.90
18934;DHT22;9599;53.706;10.384;2023-04-24T07:37:53;15.10;99.90
18934;DHT22;9599;53.706;10.384;2023-04-24T07:40:21;15.20;99.90
18934;DHT22;9599;53.706;10.384;2023-04-24T07:42:51;15.50;99.90
18934;DHT22;9599;53.706;10.384;2023-04-24T07:45:19;15.50;99.90
18934;DHT22;9599;53.706;10.384;2023-04-24T07:47:47;15.50;99.90
18934;DHT22;9599;53.706;10.384;2023-04-24T07:50:15;15.20;99.90
18934;DHT22;9599;53.706;10.384;2023-04-24T07:52:42;15.10;99.90
18934;DHT22;9599;53.706;10.384;2023-04-24T07:55:10;15.10;99.90
18934;DHT22;9599;53.706;10.384;2023-04-24T07:57:38;15.20;99.90
18934;DHT22;9599;53.706;10.384;2023-04-24T08:00:09;15.20;99.90
18934;DHT22;9599;53.706;10.384;2023-04-24T08:02:37;15.10;99.90
18934;DHT22;9599;53.706;10.384;2023-04-24T08:05:06;15.00;99.90
18934;DHT22;9599;53.706;10.384;2023-04-24T08:07:34;15.20;99.90
18934;DHT22;9599;53.706;10.384;2023-04-24T08:10:03;15.30;99.90
18934;DHT22;9599;53.706;10.384;2023-04-24T08:12:31;15.60;99.90
18934;DHT22;9599;53.706;10.384;2023-04-24T08:14:59;15.90;99.90
18934;DHT22;9599;53.706;10.384;2023-04-24T08:17:28;16.00;99.90
18934;DHT22;9599;53.706;10.384;2023-04-24T08:19:58;16.00;99.90
18934;DHT22;9599;53.706;10.384;2023-04-24T08:22:28;15.90;99.90
18934;DHT22;9599;53.706;10.384;2023-04-24T08:24:57;15.80;99.90
18934;DHT22;9599;53.706;10.384;2023-04-24T08:27:26;15.90;99.90
18934;DHT22;9599;53.706;10.384;2023-04-24T08:29:54;16.00;99.90
18934;DHT22;9599;53.706;10.384;2023-04-24T08:32:22;15.90;99.90
18934;DHT22;9599;53.706;10.384;2023-04-24T08:34:51;15.60;99.90
18934;DHT22;9599;53.706;10.384;2023-04-24T08:37:20;15.30;99.90
18934;DHT22;9599;53.706;10.384;2023-04-24T08:39:48;15.30;99.90
18934;DHT22;9599;53.706;10.384;2023-04-24T08:42:17;15.20;99.90
18934;DHT22;9599;53.706;10.384;2023-04-24T08:44:45;15.10;99.90
18934;DHT22;9599;53.706;10.384;2023-04-24T08:47:15;14.90;99.90
18934;DHT22;9599;53.706;10.384;2023-04-24T08:49:43;14.90;99.90
18934;DHT22;9599;53.706;10.384;2023-04-24T08:52:13;14.90;99.90
18934;DHT22;9599;53.706;10.384;2023-04-24T08:54:43;15.00;99.90
18934;DHT22;9599;53.706;10.384;2023-04-24T08:57:14;15.00;99.90
18934;DHT22;9599;53.706;10.384;2023-04-24T08:59:43;14.90;99.90
18934;DHT22;9599;53.706;10.384;2023-04-24T09:02:12;14.80;99.90
18934;DHT22;9599;53.706;10.384;2023-04-24T09:04:43;14.80;99.90
18934;DHT22;9599;53.706;10.384;2023-04-24T09:07:14;14.80;99.90
18934;DHT22;9599;53.706;10.384;2023-04-24T09:09:42;14.90;99.90
18934;DHT22;9599;53.706;10.384;2023-04-24T09:12:11;15.10;99.90
18934;DHT22;9599;53.706;10.384;2023-04-24T09:14:40;15.20;99.90
18934;DHT22;9599;53.706;10.384;2023-04-24T09:17:11;15.10;99.90
18934;DHT22;9599;53.706;10.384;2023-04-24T09:19:40;15.30;99.90
18934;DHT22;9599;53.706;10.384;2023-04-24T09:22:09;15.10;99.90
18934;DHT22;9599;53.706;10.384;2023-04-24T09:24:39;15.00;99.90
18934;DHT22;9599;53.706;10.384;2023-04-24T09:27:07;15.20;99.90
18934;DHT22;9599;53.706;10.384;2023-04-24T09:29:37;15.40;99.90
18934;DHT22;9599;53.706;10.384;2023-04-24T09:32:18;15.50;99.90
18934;DHT22;9599;53.706;10.384;2023-04-24T09:34:48;15.70;99.90
18934;DHT22;9599;53.706;10.384;2023-04-24T09:37:28;15.60;99.90
18934;DHT22;9599;53.706;10.384;2023-04-24T09:40:15;15.30;99.90
18934;DHT22;9599;53.706;10.384;2023-04-24T09:42:44;15.20;99.90
18934;DHT22;9599;53.706;10.384;2023-04-24T09:45:13;15.00;99.90
18934;DHT22;9599;53.706;10.384;2023-04-24T09:47:43;15.00;99.90
18934;DHT22;9599;53.706;10.384;2023-04-24T09:50:16;15.10;99.90
18934;DHT22;9599;53.706;10.384;2023-04-24T09:52:57;15.40;99.90
18934;DHT22;9599;53.706;10.384;2023-04-24T09:55:27;15.50;99.90
18934;DHT22;9599;53.706;10.384;2023-04-24T09:57:57;15.30;99.90
18934;DHT22;9599;53.706;10.384;2023-04-24T10:00:28;15.60;99.90
18934;DHT22;9599;53.706;10.384;2023-04-24T10:02:58;15.90;99.90
18934;DHT22;9599;53.706;10.384;2023-04-24T10:05:29;15.80;99.90
18934;DHT22;9599;53.706;10.384;2023-04-24T10:08:02;15.60;99.90
18934;DHT22;9599;53.706;10.384;2023-04-24T10:10:33;15.50;99.90
18934;DHT22;9599;53.706;10.384;2023-04-24T10:13:01;15.50;99.90
18934;DHT22;9599;53.706;10.384;2023-04-24T10:15:30;15.50;99.90
18934;DHT22;9599;53.706;10.384;2023-04-24T10:17:58;15.40;99.90
18934;DHT22;9599;53.706;10.384;2023-04-24T10:20:28;15.40;99.90
18934;DHT22;9599;53.706;10.384;2023-04-24T10:22:58;15.80;99.90
18934;DHT22;9599;53.706;10.384;2023-04-24T10:25:27;16.20;99.90
18934;DHT22;9599;53.706;10.384;2023-04-24T10:27:59;16.40;99.90
18934;DHT22;9599;53.706;10.384;2023-04-24T10:30:28;16.10;99.90
18934;DHT22;9599;53.706;10.384;2023-04-24T10:32:56;15.70;99.90
18934;DHT22;9599;53.706;10.384;2023-04-24T10:35:24;15.80;99.90
18934;DHT22;9599;53.706;10.384;2023-04-24T10:37:56;15.80;99.90
18934;DHT22;9599;53.706;10.384;2023-04-24T10:40:27;15.80;99.90
18934;DHT22;9599;53.706;10.384;2023-04-24T10:42:57;15.90;99.90
18934;DHT22;9599;53.706;10.384;2023-04-24T10:45:25;16.00;99.90
18934;DHT22;9599;53.706;10.384;2023-04-24T10:47:57;16.10;99.90
18934;DHT22;9599;53.706;10.384;2023-04-24T10:50:43;16.30;99.90
18934;DHT22;9599;53.706;10.384;2023-04-24T10:53:16;16.10;99.90
18934;DHT22;9599;53.706;10.384;2023-04-24T10:55:49;16.00;99.90
18934;DHT22;9599;53.706;10.384;2023-04-24T10:58:21;15.90;99.90
18934;DHT22;9599;53.706;10.384;2023-04-24T11:00:56;15.80;99.90
18934;DHT22;9599;53.706;10.384;2023-04-24T11:03:27;16.00;99.90
18934;DHT22;9599;53.706;10.384;2023-04-24T11:05:58;16.20;99.90
18934;DHT22;9599;53.706;10.384;2023-04-24T11:08:31;16.10;99.90
18934;DHT22;9599;53.706;10.384;2023-04-24T11:11:08;16.00;99.90
18934;DHT22;9599;53.706;10.384;2023-04-24T11:14:06;15.90;99.90
18934;DHT22;9599;53.706;10.384;2023-04-24T11:16:39;15.60;99.90
18934;DHT22;9599;53.706;10.384;2023-04-24T11:19:17;15.60;99.90
18934;DHT22;9599;53.706;10.384;2023-04-24T11:21:47;15.50;99.90
18934;DHT22;9599;53.706;10.384;2023-04-24T11:24:32;15.50;99.90
18934;DHT22;9599;53.706;10.384;2023-04-24T11:27:06;15.50;99.90
18934;DHT22;9599;53.706;10.384;2023-04-24T11:29:44;15.50;99.90
18934;DHT22;9599;53.706;10.384;2023-04-24T11:32:24;15.60;99.90
18934;DHT22;9599;53.706;10.384;2023-04-24T11:34:53;15.50;99.90
18934;DHT22;9599;53.706;10.384;2023-04-24T11:37:22;15.70;99.90
18934;DHT22;9599;53.706;10.384;2023-04-24T11:39:52;15.90;99.90
18934;DHT22;9599;53.706;10.384;2023-04-24T11:42:21;15.80;99.90
18934;DHT22;9599;53.706;10.384;2023-04-24T11:44:52;15.60;99.90
18934;DHT22;9599;53.706;10.384;2023-04-24T11:47:20;15.60;99.90
18934;DHT22;9599;53.706;10.384;2023-04-24T11:49:54;15.60;99.90
18934;DHT22;9599;53.706;10.384;2023-04-24T11:52:23;15.60;99.90
18934;DHT22;9599;53.706;10.384;2023-04-24T11:54:51;15.50;99.90
18934;DHT22;9599;53.706;10.384;2023-04-24T11:57:19;15.50;99.90
18934;DHT22;9599;53.706;10.384;2023-04-24T11:59:49;15.80;99.90
18934;DHT22;9599;53.706;10.384;2023-04-24T12:02:22;16.00;99.90
18934;DHT22;9599;53.706;10.384;2023-04-24T12:04:51;16.10;99.90
18934;DHT22;9599;53.706;10.384;2023-04-24T12:07:20;16.00;99.90
18934;DHT22;9599;53.706;10.384;2023-04-24T12:09:55;16.00;99.90
18934;DHT22;9599;53.706;10.384;2023-04-24T12:12:25;16.00;99.90
18934;DHT22;9599;53.706;10.384;2023-04-24T12:14:54;16.00;99.90
18934;DHT22;9599;53.706;10.384;2023-04-24T12:17:26;15.90;99.90
18934;DHT22;9599;53.706;10.384;2023-04-24T12:19:59;15.90;99.90
18934;DHT22;9599;53.706;10.384;2023-04-24T12:22:28;15.80;99.90
18934;DHT22;9599;53.706;10.384;2023-04-24T12:24:57;15.70;99.90
18934;DHT22;9599;53.706;10.384;2023-04-24T12:27:26;15.50;99.90
18934;DHT22;9599;53.706;10.384;2023-04-24T12:29:55;15.30;99.90
18934;DHT22;9599;53.706;10.384;2023-04-24T12:32:25;15.40;99.90
18934;DHT22;9599;53.706;10.384;2023-04-24T12:34:55;15.60;99.90
18934;DHT22;9599;53.706;10.384;2023-04-24T12:37:24;15.80;99.90
18934;DHT22;9599;53.706;10.384;2023-04-24T12:40:00;15.80;99.90
18934;DHT22;9599;53.706;10.384;2023-04-24T12:42:29;15.90;99.90
18934;DHT22;9599;53.706;10.384;2023-04-24T12:44:58;16.10;99.90
18934;DHT22;9599;53.706;10.384;2023-04-24T12:47:29;16.40;99.90
18934;DHT22;9599;53.706;10.384;2023-04-24T12:49:57;16.40;99.90
18934;DHT22;9599;53.706;10.384;2023-04-24T12:52:26;16.40;99.90
18934;DHT22;9599;53.706;10.384;2023-04-24T12:54:55;16.50;99.90
18934;DHT22;9599;53.706;10.384;2023-04-24T12:57:23;16.30;99.90
18934;DHT22;9599;53.706;10.384;2023-04-24T12:59:54;16.10;99.90
18934;DHT22;9599;53.706;10.384;2023-04-24T13:02:22;15.90;99.90
18934;DHT22;9599;53.706;10.384;2023-04-24T13:04:53;15.80;99.90
18934;DHT22;9599;53.706;10.384;2023-04-24T13:07:21;15.50;99.90
18934;DHT22;9599;53.706;10.384;2023-04-24T13:09:50;15.60;99.90
18934;DHT22;9599;53.706;10.384;2023-04-24T13:12:19;15.50;99.90
18934;DHT22;9599;53.706;10.384;2023-04-24T13:14:47;15.60;99.90
18934;DHT22;9599;53.706;10.384;2023-04-24T13:17:15;15.50;99.90
18934;DHT22;9599;53.706;10.384;2023-04-24T13:19:44;15.40;99.90
18934;DHT22;9599;53.706;10.384;2023-04-24T13:22:13;15.30;99.90
18934;DHT22;9599;53.706;10.384;2023-04-24T13:24:41;15.10;99.90
18934;DHT22;9599;53.706;10.384;2023-04-24T13:27:09;14.90;99.90
18934;DHT22;9599;53.706;10.384;2023-04-24T13:29:40;14.80;99.90
18934;DHT22;9599;53.706;10.384;2023-04-24T13:32:09;14.70;99.90
18934;DHT22;9599;53.706;10.384;2023-04-24T13:34:37;14.50;99.90
18934;DHT22;9599;53.706;10.384;2023-04-24T13:37:05;14.40;99.90
18934;DHT22;9599;53.706;10.384;2023-04-24T13:39:36;14.30;99.90
18934;DHT22;9599;53.706;10.384;2023-04-24T13:42:04;14.20;99.90
18934;DHT22;9599;53.706;10.384;2023-04-24T13:44:32;14.10;99.90
18934;DHT22;9599;53.706;10.384;2023-04-24T13:47:00;14.10;99.90
18934;DHT22;9599;53.706;10.384;2023-04-24T13:49:28;14.10;99.90
18934;DHT22;9599;53.706;10.384;2023-04-24T13:51:56;14.10;99.90
18934;DHT22;9599;53.706;10.384;2023-04-24T13:54:24;14.10;99.90
18934;DHT22;9599;53.706;10.384;2023-04-24T13:56:57;14.20;99.90
18934;DHT22;9599;53.706;10.384;2023-04-24T13:59:25;14.30;99.90
18934;DHT22;9599;53.706;10.384;2023-04-24T14:01:53;14.40;99.90
18934;DHT22;9599;53.706;10.384;2023-04-24T14:04:21;14.30;99.90
18934;DHT22;9599;53.706;10.384;2023-04-24T14:06:49;14.20;99.90
18934;DHT22;9599;53.706;10.384;2023-04-24T14:09:17;14.30;99.90
18934;DHT22;9599;53.706;10.384;2023-04-24T14:11:45;14.10;99.90
18934;DHT22;9599;53.706;10.384;2023-04-24T14:14:14;14.00;99.90
18934;DHT22;9599;53.706;10.384;2023-04-24T14:16:42;13.70;99.90
18934;DHT22;9599;53.706;10.384;2023-04-24T14:19:10;13.70;99.90
18934;DHT22;9599;53.706;10.384;2023-04-24T14:21:38;13.70;99.90
18934;DHT22;9599;53.706;10.384;2023-04-24T14:24:06;13.80;99.90
18934;DHT22;9599;53.706;10.384;2023-04-24T14:26:34;13.90;99.90
18934;DHT22;9599;53.706;10.384;2023-04-24T14:29:02;14.20;99.90
18934;DHT22;9599;53.706;10.384;2023-04-24T14:31:42;14.40;99.90
18934;DHT22;9599;53.706;10.384;2023-04-24T14:34:10;14.50;99.90
18934;DHT22;9599;53.706;10.384;2023-04-24T14:36:38;14.40;99.90
18934;DHT22;9599;53.706;10.384;2023-04-24T14:39:06;14.30;99.90
18934;DHT22;9599;53.706;10.384;2023-04-24T14:41:34;14.20;99.90
18934;DHT22;9599;53.706;10.384;2023-04-24T14:44:04;14.00;99.90
18934;DHT22;9599;53.706;10.384;2023-04-24T14:46:32;14.00;99.90
18934;DHT22;9599;53.706;10.384;2023-04-24T14:49:01;13.90;99.90
18934;DHT22;9599;53.706;10.384;2023-04-24T14:51:29;13.80;99.90
18934;DHT22;9599;53.706;10.384;2023-04-24T14:53:58;13.60;99.90
18934;DHT22;9599;53.706;10.384;2023-04-24T14:56:26;13.40;99.90
18934;DHT22;9599;53.706;10.384;2023-04-24T14:58:54;13.30;99.90
18934;DHT22;9599;53.706;10.384;2023-04-24T15:01:22;13.30;99.90
18934;DHT22;9599;53.706;10.384;2023-04-24T15:03:51;13.30;99.90
18934;DHT22;9599;53.706;10.384;2023-04-24T15:06:21;13.40;99.90
18934;DHT22;9599;53.706;10.384;2023-04-24T15:08:49;13.60;99.90
18934;DHT22;9599;53.706;10.384;2023-04-24T15:11:17;13.70;99.90
18934;DHT22;9599;53.706;10.384;2023-04-24T15:13:45;13.90;99.90
18934;DHT22;9599;53.706;10.384;2023-04-24T15:16:14;13.90;99.90
18934;DHT22;9599;53.706;10.384;2023-04-24T15:18:42;13.90;99.90
18934;DHT22;9599;53.706;10.384;2023-04-24T15:21:10;13.70;99.90
18934;DHT22;9599;53.706;10.384;2023-04-24T15:23:40;13.60;99.90
18934;DHT22;9599;53.706;10.384;2023-04-24T15:26:08;13.60;99.90
18934;DHT22;9599;53.706;10.384;2023-04-24T15:28:36;13.50;99.90
18934;DHT22;9599;53.706;10.384;2023-04-24T15:31:04;13.40;99.90
18934;DHT22;9599;53.706;10.384;2023-04-24T15:33:32;13.20;99.90
18934;DHT22;9599;53.706;10.384;2023-04-24T15:36:00;12.90;99.90
18934;DHT22;9599;53.706;10.384;2023-04-24T15:38:28;12.50;99.90
18934;DHT22;9599;53.706;10.384;2023-04-24T15:40:57;12.20;99.90
18934;DHT22;9599;53.706;10.384;2023-04-24T15:43:25;12.20;99.90
18934;DHT22;9599;53.706;10.384;2023-04-24T15:45:53;12.20;99.90